sensor_id;sensor_type;location;lat;lon;timestamp;P1;durP1;ratioP1;P2;durP2;ratioP2
27939;SDS011;15275;51.716;14.324;2023-02-12T00:00:41;18.38;;;9.27;;
27939;SDS011;15275;51.716;14.324;2023-02-12T00:03:08;16.58;;;8.60;;
27939;SDS011;15275;51.716;14.324;2023-02-12T00:05:38;15.60;;;8.80;;
27939;SDS011;15275;51.716;14.324;2023-02-12T00:08:06;13.80;;;7.93;;
27939;SDS011;15275;51.716;14.324;2023-02-12T00:10:40;14.90;;;8.13;;
27939;SDS011;15275;51.716;14.324;2023-02-12T00:13:08;14.63;;;8.77;;
27939;SDS011;15275;51.716;14.324;2023-02-12T00:15:39;16.77;;;8.07;;
27939;SDS011;15275;51.716;14.324;2023-02-12T00:18:07;18.25;;;8.75;;
27939;SDS011;15275;51.716;14.324;2023-02-12T00:20:33;19.65;;;8.77;;
27939;SDS011;15275;51.716;14.324;2023-02-12T00:23:01;13.07;;;8.10;;
27939;SDS011;15275;51.716;14.324;2023-02-12T00:25:27;15.25;;;8.27;;
27939;SDS011;15275;51.716;14.324;2023-02-12T00:27:52;15.48;;;8.32;;
27939;SDS011;15275;51.716;14.324;2023-02-12T00:30:18;15.45;;;8.20;;
27939;SDS011;15275;51.716;14.324;2023-02-12T00:32:44;15.45;;;8.90;;
27939;SDS011;15275;51.716;14.324;2023-02-12T00:35:11;17.55;;;9.00;;
27939;SDS011;15275;51.716;14.324;2023-02-12T00:37:37;18.27;;;8.45;;
27939;SDS011;15275;51.716;14.324;2023-02-12T00:40:03;14.55;;;7.97;;
27939;SDS011;15275;51.716;14.324;2023-02-12T00:42:30;15.90;;;8.95;;
27939;SDS011;15275;51.716;14.324;2023-02-12T00:44:56;14.68;;;7.40;;
27939;SDS011;15275;51.716;14.324;2023-02-12T00:47:22;13.40;;;8.02;;
27939;SDS011;15275;51.716;14.324;2023-02-12T00:49:48;18.15;;;8.85;;
27939;SDS011;15275;51.716;14.324;2023-02-12T00:52:14;16.15;;;8.30;;
27939;SDS011;15275;51.716;14.324;2023-02-12T00:54:40;13.30;;;7.72;;
27939;SDS011;15275;51.716;14.324;2023-02-12T00:57:05;16.55;;;8.38;;
27939;SDS011;15275;51.716;14.324;2023-02-12T00:59:31;15.73;;;8.18;;
27939;SDS011;15275;51.716;14.324;2023-02-12T01:02:00;17.63;;;8.00;;
27939;SDS011;15275;51.716;14.324;2023-02-12T01:04:26;18.85;;;7.88;;
27939;SDS011;15275;51.716;14.324;2023-02-12T01:06:52;16.98;;;7.88;;
27939;SDS011;15275;51.716;14.324;2023-02-12T01:09:17;18.45;;;8.07;;
27939;SDS011;15275;51.716;14.324;2023-02-12T01:11:43;17.55;;;9.10;;
27939;SDS011;15275;51.716;14.324;2023-02-12T01:14:09;15.38;;;8.77;;
27939;SDS011;15275;51.716;14.324;2023-02-12T01:16:35;15.68;;;8.05;;
27939;SDS011;15275;51.716;14.324;2023-02-12T01:19:01;15.85;;;9.43;;
27939;SDS011;15275;51.716;14.324;2023-02-12T01:21:29;15.43;;;7.97;;
27939;SDS011;15275;51.716;14.324;2023-02-12T01:23:58;17.58;;;7.70;;
27939;SDS011;15275;51.716;14.324;2023-02-12T01:26:25;15.55;;;7.63;;
27939;SDS011;15275;51.716;14.324;2023-02-12T01:28:53;19.20;;;8.50;;
27939;SDS011;15275;51.716;14.324;2023-02-12T01:31:26;16.00;;;7.88;;
27939;SDS011;15275;51.716;14.324;2023-02-12T01:33:56;17.40;;;7.93;;
27939;SDS011;15275;51.716;14.324;2023-02-12T01:36:23;17.00;;;7.55;;
27939;SDS011;15275;51.716;14.324;2023-02-12T01:38:50;19.23;;;8.50;;
27939;SDS011;15275;51.716;14.324;2023-02-12T01:41:20;13.77;;;7.43;;
27939;SDS011;15275;51.716;14.324;2023-02-12T01:46:39;17.58;;;7.20;;
27939;SDS011;15275;51.716;14.324;2023-02-12T01:49:10;13.65;;;7.32;;
27939;SDS011;15275;51.716;14.324;2023-02-12T01:51:50;13.60;;;6.50;;
27939;SDS011;15275;51.716;14.324;2023-02-12T01:54:20;19.58;;;7.15;;
27939;SDS011;15275;51.716;14.324;2023-02-12T01:56:49;16.42;;;7.72;;
27939;SDS011;15275;51.716;14.324;2023-02-12T01:59:16;19.08;;;7.90;;
27939;SDS011;15275;51.716;14.324;2023-02-12T02:01:44;16.48;;;7.13;;
27939;SDS011;15275;51.716;14.324;2023-02-12T02:04:14;12.02;;;6.32;;
27939;SDS011;15275;51.716;14.324;2023-02-12T02:06:46;12.98;;;7.18;;
27939;SDS011;15275;51.716;14.324;2023-02-12T02:09:22;13.15;;;6.60;;
27939;SDS011;15275;51.716;14.324;2023-02-12T02:11:49;11.65;;;6.68;;
27939;SDS011;15275;51.716;14.324;2023-02-12T02:14:34;12.93;;;6.95;;
27939;SDS011;15275;51.716;14.324;2023-02-12T02:26:21;16.38;;;6.40;;
27939;SDS011;15275;51.716;14.324;2023-02-12T02:32:37;11.98;;;5.40;;
27939;SDS011;15275;51.716;14.324;2023-02-12T02:38:06;13.43;;;5.72;;
27939;SDS011;15275;51.716;14.324;2023-02-12T02:40:57;12.45;;;5.70;;
27939;SDS011;15275;51.716;14.324;2023-02-12T02:46:19;13.55;;;5.85;;
27939;SDS011;15275;51.716;14.324;2023-02-12T02:48:59;13.38;;;6.22;;
27939;SDS011;15275;51.716;14.324;2023-02-12T02:51:38;15.18;;;6.03;;
27939;SDS011;15275;51.716;14.324;2023-02-12T02:54:09;11.65;;;5.60;;
27939;SDS011;15275;51.716;14.324;2023-02-12T02:56:41;13.98;;;4.95;;
27939;SDS011;15275;51.716;14.324;2023-02-12T02:59:11;9.30;;;5.35;;
27939;SDS011;15275;51.716;14.324;2023-02-12T03:01:55;15.32;;;6.78;;
27939;SDS011;15275;51.716;14.324;2023-02-12T03:04:29;13.75;;;6.97;;
27939;SDS011;15275;51.716;14.324;2023-02-12T03:07:18;15.25;;;6.07;;
27939;SDS011;15275;51.716;14.324;2023-02-12T03:09:52;12.02;;;4.80;;
27939;SDS011;15275;51.716;14.324;2023-02-12T03:12:43;13.43;;;5.38;;
27939;SDS011;15275;51.716;14.324;2023-02-12T03:15:30;16.27;;;5.43;;
27939;SDS011;15275;51.716;14.324;2023-02-12T03:18:04;10.93;;;5.35;;
27939;SDS011;15275;51.716;14.324;2023-02-12T03:20:47;11.90;;;5.20;;
27939;SDS011;15275;51.716;14.324;2023-02-12T03:23:30;12.95;;;5.88;;
27939;SDS011;15275;51.716;14.324;2023-02-12T03:26:21;12.15;;;5.47;;
27939;SDS011;15275;51.716;14.324;2023-02-12T03:28:58;11.32;;;6.13;;
27939;SDS011;15275;51.716;14.324;2023-02-12T03:37:57;11.50;;;4.55;;
27939;SDS011;15275;51.716;14.324;2023-02-12T03:40:46;12.32;;;5.80;;
27939;SDS011;15275;51.716;14.324;2023-02-12T03:43:26;10.75;;;4.95;;
27939;SDS011;15275;51.716;14.324;2023-02-12T03:48:32;10.90;;;5.18;;
27939;SDS011;15275;51.716;14.324;2023-02-12T03:51:23;10.23;;;4.63;;
27939;SDS011;15275;51.716;14.324;2023-02-12T03:54:14;12.07;;;5.07;;
27939;SDS011;15275;51.716;14.324;2023-02-12T03:56:51;16.38;;;5.43;;
27939;SDS011;15275;51.716;14.324;2023-02-12T03:59:26;12.63;;;5.40;;
27939;SDS011;15275;51.716;14.324;2023-02-12T04:01:53;12.93;;;5.47;;
27939;SDS011;15275;51.716;14.324;2023-02-12T04:04:22;14.80;;;5.68;;
27939;SDS011;15275;51.716;14.324;2023-02-12T04:06:49;13.38;;;4.75;;
27939;SDS011;15275;51.716;14.324;2023-02-12T04:09:17;15.05;;;5.72;;
27939;SDS011;15275;51.716;14.324;2023-02-12T04:21:01;12.00;;;4.93;;
27939;SDS011;15275;51.716;14.324;2023-02-12T04:32:04;15.68;;;4.57;;
27939;SDS011;15275;51.716;14.324;2023-02-12T04:34:44;15.15;;;4.88;;
27939;SDS011;15275;51.716;14.324;2023-02-12T04:37:41;14.88;;;4.15;;
27939;SDS011;15275;51.716;14.324;2023-02-12T04:40:13;15.93;;;4.53;;
27939;SDS011;15275;51.716;14.324;2023-02-12T04:42:42;12.15;;;5.05;;
27939;SDS011;15275;51.716;14.324;2023-02-12T04:45:11;15.90;;;5.97;;
27939;SDS011;15275;51.716;14.324;2023-02-12T04:47:44;14.38;;;4.50;;
27939;SDS011;15275;51.716;14.324;2023-02-12T04:50:11;11.13;;;5.18;;
27939;SDS011;15275;51.716;14.324;2023-02-12T04:52:37;13.88;;;6.30;;
27939;SDS011;15275;51.716;14.324;2023-02-12T04:55:03;12.48;;;5.03;;
27939;SDS011;15275;51.716;14.324;2023-02-12T04:57:29;9.73;;;4.68;;
27939;SDS011;15275;51.716;14.324;2023-02-12T04:59:55;15.45;;;4.40;;
27939;SDS011;15275;51.716;14.324;2023-02-12T05:02:21;16.67;;;5.00;;
27939;SDS011;15275;51.716;14.324;2023-02-12T05:04:48;11.35;;;4.50;;
27939;SDS011;15275;51.716;14.324;2023-02-12T05:07:14;10.07;;;4.55;;
27939;SDS011;15275;51.716;14.324;2023-02-12T05:09:40;14.13;;;4.18;;
27939;SDS011;15275;51.716;14.324;2023-02-12T05:12:06;12.77;;;4.38;;
27939;SDS011;15275;51.716;14.324;2023-02-12T05:14:32;17.73;;;4.82;;
27939;SDS011;15275;51.716;14.324;2023-02-12T05:16:58;15.25;;;4.45;;
27939;SDS011;15275;51.716;14.324;2023-02-12T05:19:24;18.73;;;4.43;;
27939;SDS011;15275;51.716;14.324;2023-02-12T05:21:50;8.38;;;3.88;;
27939;SDS011;15275;51.716;14.324;2023-02-12T05:24:16;11.15;;;4.72;;
27939;SDS011;15275;51.716;14.324;2023-02-12T05:26:42;14.57;;;4.47;;
27939;SDS011;15275;51.716;14.324;2023-02-12T05:29:09;10.10;;;4.55;;
27939;SDS011;15275;51.716;14.324;2023-02-12T05:31:51;9.23;;;3.85;;
27939;SDS011;15275;51.716;14.324;2023-02-12T05:34:17;19.92;;;4.80;;
27939;SDS011;15275;51.716;14.324;2023-02-12T05:36:42;14.43;;;4.80;;
27939;SDS011;15275;51.716;14.324;2023-02-12T05:39:08;12.30;;;4.43;;
27939;SDS011;15275;51.716;14.324;2023-02-12T05:41:34;9.63;;;3.97;;
27939;SDS011;15275;51.716;14.324;2023-02-12T05:44:03;10.20;;;4.30;;
27939;SDS011;15275;51.716;14.324;2023-02-12T05:46:31;12.68;;;4.78;;
27939;SDS011;15275;51.716;14.324;2023-02-12T05:48:57;13.23;;;4.63;;
27939;SDS011;15275;51.716;14.324;2023-02-12T05:51:24;11.32;;;4.93;;
27939;SDS011;15275;51.716;14.324;2023-02-12T05:53:54;20.38;;;5.20;;
27939;SDS011;15275;51.716;14.324;2023-02-12T05:56:28;8.82;;;4.45;;
27939;SDS011;15275;51.716;14.324;2023-02-12T05:58:58;15.05;;;4.30;;
27939;SDS011;15275;51.716;14.324;2023-02-12T06:01:31;15.48;;;4.45;;
27939;SDS011;15275;51.716;14.324;2023-02-12T06:04:01;14.60;;;4.82;;
27939;SDS011;15275;51.716;14.324;2023-02-12T06:06:29;17.38;;;4.93;;
27939;SDS011;15275;51.716;14.324;2023-02-12T06:08:56;11.00;;;4.55;;
27939;SDS011;15275;51.716;14.324;2023-02-12T06:11:23;13.13;;;4.70;;
27939;SDS011;15275;51.716;14.324;2023-02-12T06:13:50;14.98;;;4.47;;
27939;SDS011;15275;51.716;14.324;2023-02-12T06:16:20;17.05;;;5.28;;
27939;SDS011;15275;51.716;14.324;2023-02-12T06:18:49;13.40;;;5.20;;
27939;SDS011;15275;51.716;14.324;2023-02-12T06:21:16;14.00;;;5.07;;
27939;SDS011;15275;51.716;14.324;2023-02-12T06:23:44;13.45;;;4.65;;
27939;SDS011;15275;51.716;14.324;2023-02-12T06:26:10;16.17;;;4.85;;
27939;SDS011;15275;51.716;14.324;2023-02-12T06:28:36;15.07;;;4.97;;
27939;SDS011;15275;51.716;14.324;2023-02-12T06:31:03;15.57;;;5.72;;
27939;SDS011;15275;51.716;14.324;2023-02-12T06:33:29;13.07;;;5.60;;
27939;SDS011;15275;51.716;14.324;2023-02-12T06:35:55;9.57;;;4.47;;
27939;SDS011;15275;51.716;14.324;2023-02-12T06:38:21;18.40;;;5.43;;
27939;SDS011;15275;51.716;14.324;2023-02-12T06:40:47;10.88;;;4.95;;
27939;SDS011;15275;51.716;14.324;2023-02-12T06:43:13;18.20;;;5.60;;
27939;SDS011;15275;51.716;14.324;2023-02-12T06:45:39;14.13;;;4.82;;
27939;SDS011;15275;51.716;14.324;2023-02-12T06:48:05;9.10;;;5.05;;
27939;SDS011;15275;51.716;14.324;2023-02-12T06:50:31;14.82;;;5.00;;
27939;SDS011;15275;51.716;14.324;2023-02-12T06:52:57;10.75;;;4.82;;
27939;SDS011;15275;51.716;14.324;2023-02-12T06:55:23;15.45;;;5.72;;
27939;SDS011;15275;51.716;14.324;2023-02-12T06:57:49;8.35;;;4.68;;
27939;SDS011;15275;51.716;14.324;2023-02-12T07:00:15;16.08;;;6.28;;
27939;SDS011;15275;51.716;14.324;2023-02-12T07:02:42;21.95;;;6.38;;
27939;SDS011;15275;51.716;14.324;2023-02-12T07:05:08;17.75;;;5.95;;
27939;SDS011;15275;51.716;14.324;2023-02-12T07:07:34;18.73;;;5.63;;
27939;SDS011;15275;51.716;14.324;2023-02-12T07:10:00;13.70;;;5.00;;
27939;SDS011;15275;51.716;14.324;2023-02-12T07:12:26;21.00;;;6.80;;
27939;SDS011;15275;51.716;14.324;2023-02-12T07:14:52;21.35;;;8.73;;
27939;SDS011;15275;51.716;14.324;2023-02-12T07:17:18;38.63;;;17.17;;
27939;SDS011;15275;51.716;14.324;2023-02-12T07:19:43;33.22;;;16.00;;
27939;SDS011;15275;51.716;14.324;2023-02-12T07:22:09;23.73;;;10.88;;
27939;SDS011;15275;51.716;14.324;2023-02-12T07:24:35;21.85;;;8.38;;
27939;SDS011;15275;51.716;14.324;2023-02-12T07:27:02;18.92;;;7.55;;
27939;SDS011;15275;51.716;14.324;2023-02-12T07:29:28;15.65;;;7.57;;
27939;SDS011;15275;51.716;14.324;2023-02-12T07:31:54;15.00;;;7.63;;
27939;SDS011;15275;51.716;14.324;2023-02-12T07:34:20;18.30;;;6.57;;
27939;SDS011;15275;51.716;14.324;2023-02-12T07:36:46;14.20;;;6.07;;
27939;SDS011;15275;51.716;14.324;2023-02-12T07:39:11;14.73;;;5.80;;
27939;SDS011;15275;51.716;14.324;2023-02-12T07:41:37;18.60;;;7.15;;
27939;SDS011;15275;51.716;14.324;2023-02-12T07:44:04;16.00;;;5.85;;
27939;SDS011;15275;51.716;14.324;2023-02-12T07:46:36;18.88;;;6.70;;
27939;SDS011;15275;51.716;14.324;2023-02-12T07:49:13;17.63;;;5.93;;
27939;SDS011;15275;51.716;14.324;2023-02-12T07:51:41;14.17;;;5.50;;
27939;SDS011;15275;51.716;14.324;2023-02-12T07:54:08;15.02;;;4.85;;
27939;SDS011;15275;51.716;14.324;2023-02-12T07:56:36;13.95;;;5.03;;
27939;SDS011;15275;51.716;14.324;2023-02-12T07:59:05;10.10;;;4.90;;
27939;SDS011;15275;51.716;14.324;2023-02-12T08:01:36;14.23;;;5.97;;
27939;SDS011;15275;51.716;14.324;2023-02-12T08:04:09;10.27;;;4.85;;
27939;SDS011;15275;51.716;14.324;2023-02-12T08:06:39;10.77;;;4.75;;
27939;SDS011;15275;51.716;14.324;2023-02-12T08:09:08;11.48;;;5.80;;
27939;SDS011;15275;51.716;14.324;2023-02-12T08:11:37;10.57;;;5.07;;
27939;SDS011;15275;51.716;14.324;2023-02-12T08:14:05;10.45;;;6.03;;
27939;SDS011;15275;51.716;14.324;2023-02-12T08:16:34;10.45;;;5.38;;
27939;SDS011;15275;51.716;14.324;2023-02-12T08:19:02;15.32;;;5.47;;
27939;SDS011;15275;51.716;14.324;2023-02-12T08:21:28;12.57;;;5.00;;
27939;SDS011;15275;51.716;14.324;2023-02-12T08:23:55;19.10;;;6.28;;
27939;SDS011;15275;51.716;14.324;2023-02-12T08:26:23;16.42;;;6.65;;
27939;SDS011;15275;51.716;14.324;2023-02-12T08:29:15;14.23;;;8.52;;
27939;SDS011;15275;51.716;14.324;2023-02-12T08:31:41;19.27;;;8.55;;
27939;SDS011;15275;51.716;14.324;2023-02-12T08:34:17;18.08;;;8.85;;
27939;SDS011;15275;51.716;14.324;2023-02-12T08:36:47;15.10;;;7.45;;
27939;SDS011;15275;51.716;14.324;2023-02-12T08:39:15;15.88;;;6.85;;
27939;SDS011;15275;51.716;14.324;2023-02-12T08:41:42;17.20;;;7.30;;
27939;SDS011;15275;51.716;14.324;2023-02-12T08:44:08;21.17;;;6.95;;
27939;SDS011;15275;51.716;14.324;2023-02-12T08:46:36;16.25;;;6.97;;
27939;SDS011;15275;51.716;14.324;2023-02-12T08:49:06;17.58;;;6.72;;
27939;SDS011;15275;51.716;14.324;2023-02-12T08:51:37;18.63;;;6.70;;
27939;SDS011;15275;51.716;14.324;2023-02-12T08:54:11;16.95;;;6.25;;
27939;SDS011;15275;51.716;14.324;2023-02-12T08:56:40;14.13;;;5.95;;
27939;SDS011;15275;51.716;14.324;2023-02-12T08:59:06;16.42;;;6.43;;
27939;SDS011;15275;51.716;14.324;2023-02-12T09:01:33;18.60;;;6.00;;
27939;SDS011;15275;51.716;14.324;2023-02-12T09:04:09;25.42;;;7.00;;
27939;SDS011;15275;51.716;14.324;2023-02-12T09:06:43;25.98;;;7.65;;
27939;SDS011;15275;51.716;14.324;2023-02-12T09:09:10;20.90;;;6.65;;
27939;SDS011;15275;51.716;14.324;2023-02-12T09:11:36;22.77;;;7.88;;
27939;SDS011;15275;51.716;14.324;2023-02-12T09:14:06;23.80;;;7.85;;
27939;SDS011;15275;51.716;14.324;2023-02-12T09:16:35;25.70;;;7.20;;
27939;SDS011;15275;51.716;14.324;2023-02-12T09:19:01;16.08;;;6.72;;
27939;SDS011;15275;51.716;14.324;2023-02-12T09:21:28;25.80;;;9.18;;
27939;SDS011;15275;51.716;14.324;2023-02-12T09:23:54;23.02;;;7.13;;
27939;SDS011;15275;51.716;14.324;2023-02-12T09:26:21;23.00;;;8.90;;
27939;SDS011;15275;51.716;14.324;2023-02-12T09:28:52;31.02;;;9.27;;
27939;SDS011;15275;51.716;14.324;2023-02-12T09:31:26;23.20;;;7.90;;
27939;SDS011;15275;51.716;14.324;2023-02-12T09:33:54;23.85;;;7.93;;
27939;SDS011;15275;51.716;14.324;2023-02-12T09:36:25;22.42;;;7.63;;
27939;SDS011;15275;51.716;14.324;2023-02-12T09:38:50;34.20;;;8.80;;
27939;SDS011;15275;51.716;14.324;2023-02-12T09:41:25;24.00;;;7.57;;
27939;SDS011;15275;51.716;14.324;2023-02-12T09:47:07;25.08;;;8.63;;
27939;SDS011;15275;51.716;14.324;2023-02-12T09:53:07;20.30;;;8.52;;
27939;SDS011;15275;51.716;14.324;2023-02-12T09:55:46;20.83;;;7.45;;
27939;SDS011;15275;51.716;14.324;2023-02-12T09:58:16;21.88;;;7.63;;
27939;SDS011;15275;51.716;14.324;2023-02-12T10:00:55;26.27;;;9.23;;
27939;SDS011;15275;51.716;14.324;2023-02-12T10:03:21;22.38;;;7.53;;
27939;SDS011;15275;51.716;14.324;2023-02-12T10:25:48;18.85;;;6.63;;
27939;SDS011;15275;51.716;14.324;2023-02-12T10:28:24;20.65;;;6.03;;
27939;SDS011;15275;51.716;14.324;2023-02-12T10:33:35;19.65;;;6.65;;
27939;SDS011;15275;51.716;14.324;2023-02-12T10:39:30;23.13;;;6.30;;
27939;SDS011;15275;51.716;14.324;2023-02-12T10:42:11;18.15;;;6.15;;
27939;SDS011;15275;51.716;14.324;2023-02-12T10:44:43;22.52;;;6.63;;
27939;SDS011;15275;51.716;14.324;2023-02-12T10:47:14;15.68;;;6.45;;
27939;SDS011;15275;51.716;14.324;2023-02-12T10:49:44;22.52;;;8.48;;
27939;SDS011;15275;51.716;14.324;2023-02-12T10:55:11;29.23;;;6.75;;
27939;SDS011;15275;51.716;14.324;2023-02-12T10:57:53;28.27;;;7.50;;
27939;SDS011;15275;51.716;14.324;2023-02-12T11:02:59;26.15;;;7.57;;
27939;SDS011;15275;51.716;14.324;2023-02-12T11:05:28;17.70;;;6.72;;
27939;SDS011;15275;51.716;14.324;2023-02-12T11:07:56;22.92;;;6.15;;
27939;SDS011;15275;51.716;14.324;2023-02-12T11:10:38;30.42;;;6.35;;
27939;SDS011;15275;51.716;14.324;2023-02-12T11:13:05;20.08;;;5.65;;
27939;SDS011;15275;51.716;14.324;2023-02-12T11:15:50;16.05;;;5.38;;
27939;SDS011;15275;51.716;14.324;2023-02-12T11:18:34;14.98;;;4.97;;
27939;SDS011;15275;51.716;14.324;2023-02-12T11:23:36;23.00;;;5.80;;
27939;SDS011;15275;51.716;14.324;2023-02-12T11:31:40;16.50;;;5.15;;
27939;SDS011;15275;51.716;14.324;2023-02-12T11:36:50;15.90;;;6.40;;
27939;SDS011;15275;51.716;14.324;2023-02-12T11:42:01;12.80;;;5.57;;
27939;SDS011;15275;51.716;14.324;2023-02-12T11:44:40;15.85;;;4.88;;
27939;SDS011;15275;51.716;14.324;2023-02-12T11:47:16;12.70;;;5.35;;
27939;SDS011;15275;51.716;14.324;2023-02-12T11:52:40;12.40;;;4.78;;
27939;SDS011;15275;51.716;14.324;2023-02-12T11:55:17;12.80;;;4.75;;
27939;SDS011;15275;51.716;14.324;2023-02-12T11:57:46;15.43;;;5.47;;
27939;SDS011;15275;51.716;14.324;2023-02-12T12:00:17;16.15;;;5.38;;
27939;SDS011;15275;51.716;14.324;2023-02-12T12:03:12;14.73;;;4.93;;
27939;SDS011;15275;51.716;14.324;2023-02-12T12:05:47;15.02;;;6.40;;
27939;SDS011;15275;51.716;14.324;2023-02-12T12:08:44;16.50;;;5.78;;
27939;SDS011;15275;51.716;14.324;2023-02-12T12:20:18;8.95;;;3.90;;
27939;SDS011;15275;51.716;14.324;2023-02-12T12:22:51;17.33;;;5.57;;
27939;SDS011;15275;51.716;14.324;2023-02-12T12:25:57;11.48;;;4.30;;
27939;SDS011;15275;51.716;14.324;2023-02-12T12:28:44;14.10;;;4.05;;
27939;SDS011;15275;51.716;14.324;2023-02-12T12:31:39;15.40;;;3.55;;
27939;SDS011;15275;51.716;14.324;2023-02-12T12:34:27;12.25;;;4.28;;
27939;SDS011;15275;51.716;14.324;2023-02-12T12:37:14;11.02;;;3.65;;
27939;SDS011;15275;51.716;14.324;2023-02-12T12:51:42;13.40;;;3.58;;
27939;SDS011;15275;51.716;14.324;2023-02-12T12:57:21;7.22;;;3.25;;
27939;SDS011;15275;51.716;14.324;2023-02-12T13:08:43;12.13;;;3.95;;
27939;SDS011;15275;51.716;14.324;2023-02-12T13:11:24;11.80;;;3.03;;
27939;SDS011;15275;51.716;14.324;2023-02-12T13:22:27;6.07;;;2.70;;
27939;SDS011;15275;51.716;14.324;2023-02-12T13:25:30;9.95;;;2.67;;
27939;SDS011;15275;51.716;14.324;2023-02-12T13:28:29;8.88;;;2.50;;
27939;SDS011;15275;51.716;14.324;2023-02-12T13:31:09;10.20;;;2.83;;
27939;SDS011;15275;51.716;14.324;2023-02-12T13:33:44;6.93;;;2.40;;
27939;SDS011;15275;51.716;14.324;2023-02-12T13:36:18;10.13;;;2.58;;
27939;SDS011;15275;51.716;14.324;2023-02-12T13:38:52;7.80;;;2.00;;
27939;SDS011;15275;51.716;14.324;2023-02-12T13:41:27;5.60;;;2.30;;
27939;SDS011;15275;51.716;14.324;2023-02-12T13:50:53;9.02;;;2.15;;
27939;SDS011;15275;51.716;14.324;2023-02-12T13:53:48;10.52;;;2.67;;
27939;SDS011;15275;51.716;14.324;2023-02-12T14:01:55;6.15;;;2.63;;
27939;SDS011;15275;51.716;14.324;2023-02-12T14:07:07;10.10;;;2.78;;
27939;SDS011;15275;51.716;14.324;2023-02-12T14:09:40;9.07;;;3.08;;
27939;SDS011;15275;51.716;14.324;2023-02-12T14:15:07;10.70;;;2.65;;
27939;SDS011;15275;51.716;14.324;2023-02-12T14:17:53;8.52;;;2.65;;
27939;SDS011;15275;51.716;14.324;2023-02-12T14:20:29;18.98;;;2.90;;
27939;SDS011;15275;51.716;14.324;2023-02-12T14:23:20;6.32;;;2.42;;
27939;SDS011;15275;51.716;14.324;2023-02-12T14:28:26;9.38;;;2.75;;
27939;SDS011;15275;51.716;14.324;2023-02-12T14:41:43;6.68;;;2.25;;
27939;SDS011;15275;51.716;14.324;2023-02-12T14:49:33;4.78;;;2.20;;
27939;SDS011;15275;51.716;14.324;2023-02-12T14:52:26;10.85;;;2.20;;
27939;SDS011;15275;51.716;14.324;2023-02-12T14:55:01;6.00;;;1.95;;
27939;SDS011;15275;51.716;14.324;2023-02-12T14:57:42;6.32;;;1.90;;
27939;SDS011;15275;51.716;14.324;2023-02-12T15:03:04;4.60;;;2.10;;
27939;SDS011;15275;51.716;14.324;2023-02-12T15:14:11;7.75;;;2.33;;
27939;SDS011;15275;51.716;14.324;2023-02-12T15:17:01;4.68;;;1.85;;
27939;SDS011;15275;51.716;14.324;2023-02-12T15:22:29;6.50;;;2.03;;
27939;SDS011;15275;51.716;14.324;2023-02-12T15:27:49;4.50;;;2.00;;
27939;SDS011;15275;51.716;14.324;2023-02-12T15:30:28;6.22;;;2.47;;
27939;SDS011;15275;51.716;14.324;2023-02-12T15:33:00;8.63;;;2.15;;
27939;SDS011;15275;51.716;14.324;2023-02-12T15:35:30;7.35;;;2.53;;
27939;SDS011;15275;51.716;14.324;2023-02-12T15:37:59;5.18;;;2.25;;
27939;SDS011;15275;51.716;14.324;2023-02-12T15:40:29;5.20;;;2.38;;
27939;SDS011;15275;51.716;14.324;2023-02-12T15:53:22;8.15;;;2.55;;
27939;SDS011;15275;51.716;14.324;2023-02-12T15:55:50;8.13;;;2.85;;
27939;SDS011;15275;51.716;14.324;2023-02-12T15:58:23;7.15;;;2.63;;
27939;SDS011;15275;51.716;14.324;2023-02-12T16:01:03;13.40;;;3.22;;
27939;SDS011;15275;51.716;14.324;2023-02-12T16:03:32;7.72;;;2.88;;
27939;SDS011;15275;51.716;14.324;2023-02-12T16:08:46;6.97;;;3.15;;
27939;SDS011;15275;51.716;14.324;2023-02-12T16:11:34;12.10;;;4.50;;
27939;SDS011;15275;51.716;14.324;2023-02-12T16:14:03;13.90;;;4.07;;
27939;SDS011;15275;51.716;14.324;2023-02-12T16:16:40;9.20;;;4.40;;
27939;SDS011;15275;51.716;14.324;2023-02-12T16:22:11;10.25;;;4.07;;
27939;SDS011;15275;51.716;14.324;2023-02-12T16:29:57;9.20;;;4.22;;
27939;SDS011;15275;51.716;14.324;2023-02-12T16:32:56;9.57;;;3.70;;
27939;SDS011;15275;51.716;14.324;2023-02-12T16:35:25;13.35;;;5.90;;
27939;SDS011;15275;51.716;14.324;2023-02-12T16:44:29;10.38;;;5.18;;
27939;SDS011;15275;51.716;14.324;2023-02-12T16:46:31;9.52;;;4.18;;
27939;SDS011;15275;51.716;14.324;2023-02-12T16:49:20;10.13;;;5.18;;
27939;SDS011;15275;51.716;14.324;2023-02-12T16:51:49;11.38;;;4.93;;
27939;SDS011;15275;51.716;14.324;2023-02-12T16:54:30;11.82;;;4.97;;
27939;SDS011;15275;51.716;14.324;2023-02-12T16:56:59;13.05;;;5.50;;
27939;SDS011;15275;51.716;14.324;2023-02-12T16:59:26;11.00;;;5.35;;
27939;SDS011;15275;51.716;14.324;2023-02-12T17:01:57;12.55;;;5.45;;
27939;SDS011;15275;51.716;14.324;2023-02-12T17:04:35;12.52;;;4.53;;
27939;SDS011;15275;51.716;14.324;2023-02-12T17:07:02;10.00;;;5.07;;
27939;SDS011;15275;51.716;14.324;2023-02-12T17:09:27;11.23;;;5.25;;
27939;SDS011;15275;51.716;14.324;2023-02-12T17:11:54;10.65;;;5.18;;
27939;SDS011;15275;51.716;14.324;2023-02-12T17:14:21;10.88;;;5.65;;
27939;SDS011;15275;51.716;14.324;2023-02-12T17:16:47;11.52;;;5.45;;
27939;SDS011;15275;51.716;14.324;2023-02-12T17:19:13;11.57;;;5.40;;
27939;SDS011;15275;51.716;14.324;2023-02-12T17:21:41;11.55;;;6.03;;
27939;SDS011;15275;51.716;14.324;2023-02-12T17:24:13;11.93;;;5.93;;
27939;SDS011;15275;51.716;14.324;2023-02-12T17:26:45;27.65;;;10.82;;
27939;SDS011;15275;51.716;14.324;2023-02-12T17:29:14;22.90;;;10.20;;
27939;SDS011;15275;51.716;14.324;2023-02-12T17:31:41;24.85;;;11.48;;
27939;SDS011;15275;51.716;14.324;2023-02-12T17:34:07;18.27;;;7.60;;
27939;SDS011;15275;51.716;14.324;2023-02-12T17:36:33;16.95;;;8.02;;
27939;SDS011;15275;51.716;14.324;2023-02-12T17:39:01;16.15;;;7.78;;
27939;SDS011;15275;51.716;14.324;2023-02-12T17:41:29;17.40;;;9.00;;
27939;SDS011;15275;51.716;14.324;2023-02-12T17:43:55;15.32;;;8.02;;
27939;SDS011;15275;51.716;14.324;2023-02-12T17:46:22;13.75;;;7.60;;
27939;SDS011;15275;51.716;14.324;2023-02-12T17:48:51;18.88;;;7.90;;
27939;SDS011;15275;51.716;14.324;2023-02-12T17:51:17;19.35;;;8.90;;
27939;SDS011;15275;51.716;14.324;2023-02-12T17:53:43;15.43;;;9.45;;
27939;SDS011;15275;51.716;14.324;2023-02-12T17:56:20;18.40;;;7.97;;
27939;SDS011;15275;51.716;14.324;2023-02-12T17:58:47;14.00;;;8.40;;
27939;SDS011;15275;51.716;14.324;2023-02-12T18:01:15;17.33;;;8.98;;
27939;SDS011;15275;51.716;14.324;2023-02-12T18:03:43;19.95;;;11.07;;
27939;SDS011;15275;51.716;14.324;2023-02-12T18:06:09;17.23;;;10.60;;
27939;SDS011;15275;51.716;14.324;2023-02-12T18:08:38;20.02;;;12.60;;
27939;SDS011;15275;51.716;14.324;2023-02-12T18:11:05;19.17;;;11.88;;
27939;SDS011;15275;51.716;14.324;2023-02-12T18:13:36;20.33;;;12.55;;
27939;SDS011;15275;51.716;14.324;2023-02-12T18:16:06;20.48;;;11.90;;
27939;SDS011;15275;51.716;14.324;2023-02-12T18:18:33;23.17;;;12.32;;
27939;SDS011;15275;51.716;14.324;2023-02-12T18:21:00;18.55;;;10.43;;
27939;SDS011;15275;51.716;14.324;2023-02-12T18:23:26;15.57;;;8.50;;
27939;SDS011;15275;51.716;14.324;2023-02-12T18:25:52;12.82;;;7.38;;
27939;SDS011;15275;51.716;14.324;2023-02-12T18:28:17;13.82;;;7.95;;
27939;SDS011;15275;51.716;14.324;2023-02-12T18:30:43;13.80;;;7.95;;
27939;SDS011;15275;51.716;14.324;2023-02-12T18:33:09;13.10;;;7.97;;